createdAt,value
2022-10-06T00:00:00.961Z,100998.09
2022-10-06T00:02:28.154Z,100984.25
2022-10-06T00:04:54.834Z,101008.31
2022-10-06T00:07:21.349Z,101012.59
2022-10-06T00:09:47.872Z,101015.88
2022-10-06T00:12:14.430Z,101023.72
2022-10-06T00:14:41.024Z,101017.47
2022-10-06T00:17:07.524Z,101024.19
2022-10-06T00:19:33.982Z,101016.69
2022-10-06T00:22:00.487Z,101019.13
2022-10-06T00:24:27.356Z,101000.94
2022-10-06T00:26:53.921Z,101024.03
2022-10-06T00:29:20.520Z,101024.19
2022-10-06T00:31:47.062Z,101008.69
2022-10-06T00:34:13.735Z,101009.31
2022-10-06T00:36:40.286Z,101034.53
2022-10-06T00:39:07.026Z,101045.03
2022-10-06T00:41:33.574Z,101047.69
2022-10-06T00:44:00.307Z,101036.56
2022-10-06T00:46:34.171Z,101056.78
2022-10-06T00:49:08.589Z,101064.78
2022-10-06T00:51:39.121Z,101070.16
2022-10-06T00:54:05.763Z,101079.97
2022-10-06T00:56:32.587Z,101067.13
2022-10-06T00:58:59.595Z,101067.19
2022-10-06T01:01:27.784Z,101092.97
2022-10-06T01:04:00.411Z,101090.47
2022-10-06T01:06:26.960Z,101069.00
2022-10-06T01:08:53.740Z,101089.84
2022-10-06T01:11:20.989Z,101095.16
2022-10-06T01:13:47.683Z,101090.69
2022-10-06T01:16:17.233Z,101094.94
2022-10-06T01:18:47.183Z,101098.31
2022-10-06T01:21:28.045Z,101070.41
2022-10-06T01:23:57.130Z,101073.69
2022-10-06T01:26:24.956Z,101108.13
2022-10-06T01:28:51.670Z,101081.84
2022-10-06T01:31:18.537Z,101083.28
2022-10-06T01:33:45.256Z,101111.03
2022-10-06T01:36:11.764Z,101121.34
2022-10-06T01:38:38.248Z,101118.78
2022-10-06T01:41:04.850Z,101136.00
2022-10-06T01:43:31.519Z,101128.09
2022-10-06T01:45:59.114Z,101128.41
2022-10-06T01:48:26.991Z,101151.66
2022-10-06T01:50:54.453Z,101159.78
2022-10-06T01:53:22.238Z,101136.59
2022-10-06T01:55:48.806Z,101139.25
2022-10-06T01:58:16.011Z,101144.72
2022-10-06T02:00:42.986Z,101144.72
2022-10-06T02:03:09.547Z,101161.09
2022-10-06T02:05:36.172Z,101170.66
2022-10-06T02:08:04.707Z,101151.78
2022-10-06T02:10:31.272Z,101189.84
2022-10-06T02:12:57.975Z,101193.25
2022-10-06T02:15:26.831Z,101200.06
2022-10-06T02:17:54.435Z,101221.25
2022-10-06T02:20:21.318Z,101230.19
2022-10-06T02:22:47.867Z,101200.53
2022-10-06T02:25:14.521Z,101217.00
2022-10-06T02:27:41.011Z,101219.81
2022-10-06T02:30:08.759Z,101227.81
2022-10-06T02:32:37.397Z,101214.25
2022-10-06T02:35:04.714Z,101237.84
2022-10-06T02:37:31.416Z,101214.56
2022-10-06T02:39:57.990Z,101225.22
2022-10-06T02:42:24.610Z,101223.56
2022-10-06T02:44:52.277Z,101254.19
2022-10-06T02:47:22.237Z,101235.22
2022-10-06T02:49:48.876Z,101264.78
2022-10-06T02:52:15.571Z,101259.44
2022-10-06T02:54:42.455Z,101243.09
2022-10-06T02:57:09.664Z,101276.16
2022-10-06T02:59:36.628Z,101292.03
2022-10-06T03:02:03.586Z,101288.50
2022-10-06T03:04:30.681Z,101282.16
2022-10-06T03:06:57.853Z,101272.63
2022-10-06T03:09:25.130Z,101279.44
2022-10-06T03:11:51.687Z,101295.06
2022-10-06T03:14:21.819Z,101272.50
2022-10-06T03:16:50.247Z,101298.50
2022-10-06T03:19:16.842Z,101275.03
2022-10-06T03:21:44.422Z,101307.19
2022-10-06T03:24:11.357Z,101316.00
2022-10-06T03:26:43.329Z,101318.59
2022-10-06T03:29:11.889Z,101322.03
2022-10-06T03:31:40.091Z,101329.03
2022-10-06T03:34:07.150Z,101323.69
2022-10-06T03:36:34.769Z,101324.63
2022-10-06T03:39:02.860Z,101310.13
2022-10-06T03:41:31.218Z,101310.19
2022-10-06T03:43:59.567Z,101348.50
2022-10-06T03:46:28.441Z,101358.28
2022-10-06T03:48:57.165Z,101354.91
2022-10-06T03:51:36.020Z,101369.91
2022-10-06T03:54:03.385Z,101342.34
2022-10-06T03:56:30.899Z,101379.00
2022-10-06T03:59:03.050Z,101356.75
2022-10-06T04:01:38.029Z,101386.34
2022-10-06T04:04:05.890Z,101380.25
2022-10-06T04:06:36.435Z,101379.38
2022-10-06T04:09:03.864Z,101382.06
2022-10-06T04:11:33.057Z,101384.88
2022-10-06T04:14:01.848Z,101391.22
2022-10-06T04:16:33.263Z,101398.34
2022-10-06T04:19:03.154Z,101406.34
2022-10-06T04:21:31.807Z,101386.63
2022-10-06T04:23:59.980Z,101393.75
2022-10-06T04:26:30.612Z,101412.81
2022-10-06T04:28:57.681Z,101422.50
2022-10-06T04:31:26.712Z,101416.06
2022-10-06T04:33:58.440Z,101416.44
2022-10-06T04:36:30.970Z,101428.75
2022-10-06T04:38:59.839Z,101417.97
2022-10-06T04:41:28.910Z,101406.69
2022-10-06T04:43:55.838Z,101434.63
2022-10-06T04:46:42.305Z,101440.03
2022-10-06T04:49:14.697Z,101449.88
2022-10-06T04:51:45.397Z,101449.88
2022-10-06T04:54:12.075Z,101456.28
2022-10-06T04:56:38.834Z,101413.88
2022-10-06T04:59:05.386Z,101470.56
2022-10-06T05:01:34.166Z,101463.72
2022-10-06T05:04:02.105Z,101469.13
2022-10-06T05:06:31.269Z,101458.38
2022-10-06T05:09:00.521Z,101456.72
2022-10-06T05:11:27.527Z,101494.75
2022-10-06T05:13:55.623Z,101502.41
2022-10-06T05:16:23.727Z,101476.00
2022-10-06T05:18:50.410Z,101497.31
2022-10-06T05:21:19.455Z,101509.00
2022-10-06T05:23:46.644Z,101506.66
2022-10-06T05:26:21.063Z,101517.53
2022-10-06T05:28:47.954Z,101525.22
2022-10-06T05:31:16.173Z,101528.63
2022-10-06T05:33:43.251Z,101518.19
2022-10-06T05:36:15.141Z,101527.66
2022-10-06T05:38:42.014Z,101529.53
2022-10-06T05:41:12.553Z,101518.44
2022-10-06T05:43:39.593Z,101543.03
2022-10-06T05:46:10.640Z,101524.97
2022-10-06T05:48:37.169Z,101559.13
2022-10-06T05:51:09.420Z,101539.47
2022-10-06T05:53:37.085Z,101571.84
2022-10-06T05:56:08.018Z,101576.50
2022-10-06T05:58:36.321Z,101575.69
2022-10-06T06:01:11.461Z,101560.16
2022-10-06T06:03:38.925Z,101585.94
2022-10-06T06:06:24.685Z,101582.94
2022-10-06T06:08:59.899Z,101585.06
2022-10-06T06:11:28.020Z,101608.69
2022-10-06T06:14:02.639Z,101614.28
2022-10-06T06:16:32.995Z,101620.59
2022-10-06T06:19:00.985Z,101627.59
2022-10-06T06:21:28.560Z,101630.25
2022-10-06T06:23:55.593Z,101615.69
2022-10-06T06:26:27.284Z,101615.81
2022-10-06T06:28:56.486Z,101640.13
2022-10-06T06:31:27.155Z,101649.06
2022-10-06T06:33:56.566Z,101654.25
2022-10-06T06:36:28.414Z,101667.56
2022-10-06T06:38:57.357Z,101666.53
2022-10-06T06:41:24.885Z,101646.69
2022-10-06T06:43:55.384Z,101666.63
2022-10-06T06:46:25.197Z,101657.78
2022-10-06T06:48:56.058Z,101687.34
2022-10-06T06:51:24.203Z,101682.19
2022-10-06T06:53:52.288Z,101708.78
2022-10-06T06:56:21.287Z,101678.66
2022-10-06T06:58:48.209Z,101712.69
2022-10-06T07:01:17.240Z,101719.16
2022-10-06T07:04:02.350Z,101722.03
2022-10-06T07:06:30.416Z,101715.84
2022-10-06T07:08:58.993Z,101695.31
2022-10-06T07:11:33.957Z,101725.28
2022-10-06T07:14:03.245Z,101733.47
2022-10-06T07:16:49.791Z,101710.84
2022-10-06T07:19:37.468Z,101714.44
2022-10-06T07:22:25.912Z,101712.38
2022-10-06T07:25:11.628Z,101732.53
2022-10-06T07:27:46.897Z,101738.53
2022-10-06T07:30:19.678Z,101734.00
2022-10-06T07:32:50.640Z,101733.47
2022-10-06T07:35:20.401Z,101761.34
2022-10-06T07:37:47.460Z,101752.16
2022-10-06T07:40:17.859Z,101731.22
2022-10-06T07:42:52.041Z,101756.50
2022-10-06T07:45:41.018Z,101759.31
2022-10-06T07:48:14.521Z,101768.53
2022-10-06T07:50:42.675Z,101768.53
2022-10-06T07:53:09.313Z,101780.41
2022-10-06T07:55:40.359Z,101776.13
2022-10-06T07:58:14.975Z,101782.53
2022-10-06T08:00:42.833Z,101786.16
2022-10-06T08:03:10.907Z,101785.34
2022-10-06T08:05:39.284Z,101780.91
2022-10-06T08:08:06.569Z,101796.81
2022-10-06T08:10:33.069Z,101799.50
2022-10-06T08:13:01.242Z,101805.69
2022-10-06T08:15:27.982Z,101762.38
2022-10-06T08:17:54.495Z,101811.41
2022-10-06T08:20:21.566Z,101806.38
2022-10-06T08:22:48.289Z,101826.16
2022-10-06T08:25:15.303Z,101808.84
2022-10-06T08:27:44.150Z,101821.75
2022-10-06T08:30:12.005Z,101828.13
2022-10-06T08:32:39.185Z,101826.72
2022-10-06T08:35:05.792Z,101841.00
2022-10-06T08:37:32.419Z,101847.84
2022-10-06T08:39:58.938Z,101856.16
2022-10-06T08:42:43.406Z,101850.25
2022-10-06T08:45:17.183Z,101828.16
2022-10-06T08:48:09.967Z,101844.22
2022-10-06T08:51:00.342Z,101832.00
2022-10-06T08:53:48.510Z,101805.69
2022-10-06T08:56:31.345Z,101856.16
2022-10-06T08:59:04.286Z,101858.72
2022-10-06T09:01:41.624Z,101833.44
2022-10-06T09:04:15.936Z,101871.72
2022-10-06T09:06:52.068Z,101865.25
2022-10-06T09:09:34.983Z,101870.19
2022-10-06T09:12:30.717Z,101872.44
2022-10-06T09:15:17.513Z,101871.69
2022-10-06T09:17:57.060Z,101840.84
2022-10-06T09:20:34.147Z,101854.13
2022-10-06T09:23:04.290Z,101868.19
2022-10-06T09:25:30.936Z,101873.59
2022-10-06T09:28:00.844Z,101875.50
2022-10-06T09:30:27.741Z,101853.31
2022-10-06T09:33:03.460Z,101874.69
2022-10-06T09:35:31.948Z,101875.28
2022-10-06T09:38:08.184Z,101857.97
2022-10-06T09:40:46.137Z,101875.69
2022-10-06T09:43:27.786Z,101876.25
2022-10-06T09:45:55.959Z,101881.81
2022-10-06T09:48:25.545Z,101888.91
2022-10-06T09:51:17.312Z,101884.63
2022-10-06T09:54:02.894Z,101873.31
2022-10-06T09:56:29.863Z,101874.56
2022-10-06T09:58:58.911Z,101858.50
2022-10-06T10:01:28.654Z,101881.69
2022-10-06T10:04:20.585Z,101882.28
2022-10-06T10:06:47.104Z,101879.66
2022-10-06T10:09:23.750Z,101878.78
2022-10-06T10:12:24.489Z,101880.00
2022-10-06T10:14:51.893Z,101880.41
2022-10-06T10:17:35.467Z,101882.75
2022-10-06T10:20:03.215Z,101884.03
2022-10-06T10:22:34.885Z,101858.03
2022-10-06T10:25:07.269Z,101883.69
2022-10-06T10:27:45.750Z,101855.84
2022-10-06T10:30:14.868Z,101866.59
2022-10-06T10:33:12.090Z,101877.22
2022-10-06T10:35:51.513Z,101873.66
2022-10-06T10:38:26.922Z,101881.94
2022-10-06T10:41:07.303Z,101876.97
2022-10-06T10:43:34.726Z,101866.56
2022-10-06T10:46:12.302Z,101855.09
2022-10-06T10:49:14.123Z,101868.97
2022-10-06T10:52:15.494Z,101879.81
2022-10-06T10:54:48.237Z,101885.66
2022-10-06T10:57:28.465Z,101874.47
2022-10-06T11:00:01.464Z,101881.41
2022-10-06T11:02:28.751Z,101877.56
2022-10-06T11:05:03.935Z,101879.81
2022-10-06T11:07:58.326Z,101876.00
2022-10-06T11:10:41.071Z,101876.56
2022-10-06T11:13:14.966Z,101883.91
2022-10-06T11:15:48.421Z,101881.38
2022-10-06T11:18:30.238Z,101877.69
2022-10-06T11:21:11.582Z,101874.09
2022-10-06T11:23:44.970Z,101873.63
2022-10-06T11:26:35.959Z,101869.06
2022-10-06T11:29:26.941Z,101881.88
2022-10-06T11:32:12.245Z,101880.25
2022-10-06T11:34:40.794Z,101871.88
2022-10-06T11:37:28.822Z,101871.88
2022-10-06T11:40:36.875Z,101866.22
2022-10-06T11:43:09.498Z,101866.81
2022-10-06T11:45:55.005Z,101860.00
2022-10-06T11:48:32.218Z,101833.56
2022-10-06T11:51:17.535Z,101832.63
2022-10-06T11:53:45.548Z,101845.41
2022-10-06T11:56:18.186Z,101854.56
2022-10-06T11:58:56.654Z,101834.75
2022-10-06T12:01:36.404Z,101847.75
2022-10-06T12:04:05.426Z,101847.66
2022-10-06T12:06:53.216Z,101844.75
2022-10-06T12:09:26.371Z,101850.75
2022-10-06T12:11:53.910Z,101829.06
2022-10-06T12:17:37.704Z,101836.63
2022-10-06T12:20:19.208Z,101838.91
2022-10-06T12:23:01.847Z,101831.19
2022-10-06T12:25:54.066Z,101826.44
2022-10-06T12:28:44.450Z,101827.31
2022-10-06T12:31:39.749Z,101826.44
2022-10-06T12:34:43.853Z,101804.13
2022-10-06T12:37:28.616Z,101805.16
2022-10-06T12:40:32.732Z,101820.13
2022-10-06T12:43:23.360Z,101825.91
2022-10-06T12:45:56.057Z,101812.25
2022-10-06T12:48:51.888Z,101823.22
2022-10-06T12:51:36.292Z,101812.41
2022-10-06T12:54:12.057Z,101792.53
2022-10-06T12:56:40.891Z,101823.84
2022-10-06T12:59:32.107Z,101801.50
2022-10-06T13:02:02.820Z,101804.13
2022-10-06T13:04:49.112Z,101815.28
2022-10-06T13:07:22.379Z,101812.31
2022-10-06T13:09:52.351Z,101795.88
2022-10-06T13:12:24.108Z,101817.44
2022-10-06T13:15:12.685Z,101806.50
2022-10-06T13:17:42.930Z,101799.97
2022-10-06T13:20:20.709Z,101798.91
2022-10-06T13:22:56.018Z,101782.59
2022-10-06T13:25:22.519Z,101803.59
2022-10-06T13:27:51.835Z,101800.16
2022-10-06T13:30:22.475Z,101778.28
2022-10-06T13:32:53.649Z,101785.38
2022-10-06T13:35:24.669Z,101804.88
2022-10-06T13:37:55.415Z,101777.56
2022-10-06T13:40:43.992Z,101771.97
2022-10-06T13:43:19.210Z,101773.69
2022-10-06T13:45:48.368Z,101787.69
2022-10-06T13:48:21.170Z,101791.84
2022-10-06T13:50:49.359Z,101801.28
2022-10-06T13:53:31.422Z,101772.03
2022-10-06T13:55:59.018Z,101795.53
2022-10-06T13:58:27.943Z,101772.97
2022-10-06T14:01:00.826Z,101787.75
2022-10-06T14:03:29.439Z,101792.00
2022-10-06T14:06:16.970Z,101798.31
2022-10-06T14:08:54.831Z,101777.81
2022-10-06T14:11:24.806Z,101778.19
2022-10-06T14:14:03.024Z,101784.22
2022-10-06T14:16:29.791Z,101778.78
2022-10-06T14:19:00.078Z,101787.44
2022-10-06T14:21:30.114Z,101779.38
2022-10-06T14:23:56.761Z,101777.50
2022-10-06T14:26:27.057Z,101786.47
2022-10-06T14:28:53.978Z,101759.34
2022-10-06T14:31:21.907Z,101784.41
2022-10-06T14:33:53.442Z,101765.72
2022-10-06T14:36:27.344Z,101781.25
2022-10-06T14:38:55.649Z,101752.91
2022-10-06T14:41:30.356Z,101761.81
2022-10-06T14:44:01.410Z,101770.41
2022-10-06T14:46:29.172Z,101770.13
2022-10-06T14:48:56.019Z,101774.94
2022-10-06T14:51:24.576Z,101755.69
2022-10-06T14:53:54.835Z,101772.13
2022-10-06T14:56:23.347Z,101765.72
2022-10-06T14:58:51.316Z,101744.38
2022-10-06T15:01:21.209Z,101763.13
2022-10-06T15:03:59.690Z,101752.41
2022-10-06T15:06:46.498Z,101762.34
2022-10-06T15:09:13.284Z,101758.09
2022-10-06T15:11:40.483Z,101762.56
2022-10-06T15:14:10.435Z,101763.19
2022-10-06T15:16:40.603Z,101761.00
2022-10-06T15:19:07.219Z,101744.63
2022-10-06T15:21:34.248Z,101748.53
2022-10-06T15:24:04.384Z,101736.84
2022-10-06T15:26:50.500Z,101750.97
2022-10-06T15:29:17.881Z,101756.44
2022-10-06T15:31:53.079Z,101748.81
2022-10-06T15:34:23.713Z,101731.00
2022-10-06T15:36:52.420Z,101748.22
2022-10-06T15:39:21.645Z,101733.84
2022-10-06T15:41:48.718Z,101753.06
2022-10-06T15:44:16.503Z,101744.38
2022-10-06T15:46:45.427Z,101745.41
2022-10-06T15:49:19.996Z,101737.66
2022-10-06T15:51:52.232Z,101744.09
2022-10-06T15:54:24.168Z,101748.81
2022-10-06T15:56:59.406Z,101726.63
2022-10-06T15:59:27.517Z,101740.19
2022-10-06T16:01:57.182Z,101746.56
2022-10-06T16:04:48.199Z,101706.00
2022-10-06T16:07:19.687Z,101746.94
2022-10-06T16:09:48.761Z,101747.97
2022-10-06T16:12:18.293Z,101727.41
2022-10-06T16:14:45.204Z,101724.97
2022-10-06T16:17:12.430Z,101745.88
2022-10-06T16:19:40.289Z,101741.34
2022-10-06T16:22:10.986Z,101740.69
2022-10-06T16:24:37.568Z,101734.66
2022-10-06T16:27:04.513Z,101728.81
2022-10-06T16:29:31.197Z,101735.66
2022-10-06T16:31:59.103Z,101736.69
2022-10-06T16:34:25.630Z,101743.19
2022-10-06T16:36:52.348Z,101751.63
2022-10-06T16:39:21.534Z,101736.31
2022-10-06T16:41:49.366Z,101737.69
2022-10-06T16:44:16.327Z,101744.72
2022-10-06T16:46:43.260Z,101751.72
2022-10-06T16:49:10.184Z,101748.47
2022-10-06T16:51:48.380Z,101753.25
2022-10-06T16:54:17.392Z,101758.88
2022-10-06T16:56:52.501Z,101754.78
2022-10-06T16:59:20.931Z,101755.25
2022-10-06T17:01:49.024Z,101756.38
2022-10-06T17:04:25.495Z,101755.03
2022-10-06T17:06:54.910Z,101758.19
2022-10-06T17:09:23.571Z,101756.88
2022-10-06T17:11:52.691Z,101741.75
2022-10-06T17:14:20.026Z,101758.50
2022-10-06T17:16:48.562Z,101750.22
2022-10-06T17:19:16.930Z,101758.38
2022-10-06T17:21:46.766Z,101760.38
2022-10-06T17:24:14.924Z,101758.03
2022-10-06T17:26:43.752Z,101777.91
2022-10-06T17:29:16.945Z,101767.31
2022-10-06T17:31:43.721Z,101769.47
2022-10-06T17:34:21.244Z,101762.75
2022-10-06T17:36:50.935Z,101744.22
2022-10-06T17:39:20.335Z,101743.53
2022-10-06T17:41:48.084Z,101761.19
2022-10-06T17:44:18.841Z,101744.25
2022-10-06T17:46:45.667Z,101770.66
2022-10-06T17:49:15.659Z,101772.63
2022-10-06T17:51:45.374Z,101763.44
2022-10-06T17:54:16.403Z,101768.78
2022-10-06T17:56:44.048Z,101763.13
2022-10-06T17:59:20.022Z,101774.53
2022-10-06T18:01:46.765Z,101747.88
2022-10-06T18:04:17.591Z,101774.25
2022-10-06T18:06:46.385Z,101778.88
2022-10-06T18:09:14.587Z,101774.59
2022-10-06T18:11:43.907Z,101769.63
2022-10-06T18:14:19.640Z,101771.66
2022-10-06T18:16:55.911Z,101772.72
2022-10-06T18:19:33.562Z,101780.09
2022-10-06T18:22:03.338Z,101774.25
2022-10-06T18:24:31.455Z,101768.38
2022-10-06T18:27:00.315Z,101776.59
2022-10-06T18:29:32.898Z,101772.25
2022-10-06T18:32:27.241Z,101781.09
2022-10-06T18:37:34.378Z,101773.78
2022-10-06T18:40:05.249Z,101781.91
2022-10-06T18:42:31.796Z,101787.38
2022-10-06T18:45:16.974Z,101783.03
2022-10-06T18:48:01.939Z,101750.31
2022-10-06T18:50:28.476Z,101768.66
2022-10-06T18:52:56.939Z,101750.56
2022-10-06T18:55:23.507Z,101779.44
2022-10-06T18:57:50.521Z,101762.06
2022-10-06T19:00:17.690Z,101744.13
2022-10-06T19:02:48.291Z,101768.72
2022-10-06T19:05:17.290Z,101730.84
2022-10-06T19:07:44.768Z,101778.75
2022-10-06T19:10:11.885Z,101784.84
2022-10-06T19:12:38.522Z,101780.25
2022-10-06T19:15:05.723Z,101771.41
2022-10-06T19:17:32.636Z,101764.47
2022-10-06T19:19:59.370Z,101780.31
2022-10-06T19:22:25.982Z,101780.50
2022-10-06T19:24:52.984Z,101767.91
2022-10-06T19:27:24.378Z,101776.97
2022-10-06T19:29:56.627Z,101779.00
2022-10-06T19:32:26.703Z,101765.22
2022-10-06T19:34:57.980Z,101775.06
2022-10-06T19:37:27.140Z,101776.97
2022-10-06T19:39:53.945Z,101790.13
2022-10-06T19:42:39.891Z,101777.88
2022-10-06T19:45:07.986Z,101771.78
2022-10-06T19:47:34.556Z,101784.91
2022-10-06T19:50:05.959Z,101785.19
2022-10-06T19:52:37.039Z,101779.41
2022-10-06T19:55:04.224Z,101791.81
2022-10-06T19:57:32.603Z,101784.81
2022-10-06T19:59:59.235Z,101772.53
2022-10-06T20:02:25.942Z,101801.28
2022-10-06T20:04:52.472Z,101790.78
2022-10-06T20:07:21.803Z,101793.53
2022-10-06T20:09:48.678Z,101800.81
2022-10-06T20:12:17.837Z,101806.88
2022-10-06T20:14:47.781Z,101779.03
2022-10-06T20:17:14.412Z,101795.66
2022-10-06T20:19:41.057Z,101803.78
2022-10-06T20:22:07.638Z,101793.41
2022-10-06T20:24:35.289Z,101791.00
2022-10-06T20:27:01.900Z,101791.94
2022-10-06T20:29:28.773Z,101790.25
2022-10-06T20:31:59.522Z,101802.59
2022-10-06T20:34:32.293Z,101800.00
2022-10-06T20:37:01.909Z,101794.75
2022-10-06T20:39:49.369Z,101793.13
2022-10-06T20:42:16.675Z,101777.56
2022-10-06T20:44:44.345Z,101797.69
2022-10-06T20:47:13.209Z,101779.53
2022-10-06T20:49:42.243Z,101775.19
2022-10-06T20:52:09.927Z,101789.22
2022-10-06T20:54:37.387Z,101778.09
2022-10-06T20:57:06.269Z,101785.28
2022-10-06T20:59:35.483Z,101778.53
2022-10-06T21:02:02.908Z,101763.03
2022-10-06T21:04:30.551Z,101775.16
2022-10-06T21:06:57.802Z,101796.91
2022-10-06T21:09:25.032Z,101797.75
2022-10-06T21:11:52.581Z,101788.38
2022-10-06T21:14:19.980Z,101781.50
2022-10-06T21:16:48.052Z,101783.47
2022-10-06T21:19:19.391Z,101792.50
2022-10-06T21:21:52.395Z,101792.47
2022-10-06T21:24:20.773Z,101784.47
2022-10-06T21:26:48.137Z,101789.00
2022-10-06T21:29:15.667Z,101781.06
2022-10-06T21:31:43.558Z,101787.34
2022-10-06T21:34:10.625Z,101759.53
2022-10-06T21:36:37.385Z,101778.75
2022-10-06T21:39:07.303Z,101779.69
2022-10-06T21:41:39.093Z,101759.53
2022-10-06T21:44:10.261Z,101776.97
2022-10-06T21:46:40.929Z,101776.06
2022-10-06T21:49:09.994Z,101782.28
2022-10-06T21:51:37.245Z,101778.78
2022-10-06T21:54:05.003Z,101777.16
2022-10-06T21:56:33.437Z,101773.00
2022-10-06T21:59:00.881Z,101745.22
2022-10-06T22:01:39.545Z,101753.19
2022-10-06T22:04:06.611Z,101762.06
2022-10-06T22:06:36.218Z,101769.00
2022-10-06T22:09:04.972Z,101736.75
2022-10-06T22:11:35.262Z,101758.59
2022-10-06T22:14:05.243Z,101767.50
2022-10-06T22:16:34.574Z,101760.53
2022-10-06T22:19:03.611Z,101759.78
2022-10-06T22:21:34.677Z,101763.38
2022-10-06T22:24:09.719Z,101758.25
2022-10-06T22:26:38.552Z,101760.09
2022-10-06T22:29:08.109Z,101762.59
2022-10-06T22:31:36.905Z,101753.78
2022-10-06T22:34:06.844Z,101756.53
2022-10-06T22:36:34.780Z,101755.78
2022-10-06T22:39:02.082Z,101755.03
2022-10-06T22:41:29.431Z,101758.59
2022-10-06T22:43:57.945Z,101751.66
2022-10-06T22:46:29.382Z,101749.13
2022-10-06T22:48:56.726Z,101745.59
2022-10-06T22:51:23.770Z,101744.59
2022-10-06T22:53:58.950Z,101727.75
2022-10-06T22:56:31.741Z,101737.22
2022-10-06T22:59:00.057Z,101730.25
2022-10-06T23:01:28.344Z,101725.06
2022-10-06T23:03:55.748Z,101698.25
2022-10-06T23:06:22.586Z,101697.50
2022-10-06T23:08:49.233Z,101723.78
2022-10-06T23:11:18.423Z,101726.56
2022-10-06T23:13:45.587Z,101696.94
2022-10-06T23:16:14.776Z,101721.19
2022-10-06T23:18:42.963Z,101715.84
2022-10-06T23:21:19.413Z,101708.84
2022-10-06T23:23:46.775Z,101714.13
2022-10-06T23:26:15.300Z,101706.44
2022-10-06T23:28:42.741Z,101704.69
2022-10-06T23:31:10.603Z,101707.13
2022-10-06T23:33:37.673Z,101701.81
2022-10-06T23:36:09.870Z,101702.72
2022-10-06T23:38:37.610Z,101701.84
2022-10-06T23:41:05.018Z,101696.66
2022-10-06T23:43:31.779Z,101701.84
2022-10-06T23:45:58.492Z,101706.22
2022-10-06T23:48:25.494Z,101683.63
2022-10-06T23:51:00.537Z,101680.34
2022-10-06T23:53:27.848Z,101701.47
2022-10-06T23:55:54.967Z,101692.78
2022-10-06T23:58:22.756Z,101684.94
